Carlisle, KY (40311)

06:52 EDT le 03 septembre 2015 (GMT -0400)
Waste Water Treatment Plant | | Change Station
CLOSE
Current Station
Stations météorologiques personnelles
Location: Paris, KY
Altitude: 794 ft
Stations météo à proximité

Alt. 794 ft 38.22 °N, 84.25 °W | Updated 13 minutes ago

Partiellement nuageux
Partiellement nuageux
65.1 ° F
Paraît 65.1 ° F
N
1.7
Vent Variable Vent de NNE

Aujourd'hui
Haut(e) -- | Bas -- ° F
--% Risque de précip.
Hier
Haut(e) -- | Bas -- ° F
Precip. -- pouce
7:07 AM 8:03 PM
Lune gibbeuse décroissante, 71% visible
Pression 30.06 pouce
Visibilité 1.5 Miles terrestres
Nuages
Point de rosée 64 ° F
Humidité 95%
Précipitations 0.00 pouce
Profondeur de la couche neigeuse Non disponible.
UV Non disponible.
Pollen 10.20 sur 12
Qualité de l'air Non disponible.
Flu Activity Non disponible.
METAR KIOB 031035Z AUTO 25003KT 1 1/2SM BR VV007 18/18 A3006 RMK AO2
Pression 30.06 pouce
Visibilité 1.5 Miles terrestres
Nuages
Point de rosée 64 ° F
Humidité 95%
Précipitations 0.00 pouce
Profondeur de la couche neigeuse Non disponible.
UV Non disponible.
Pollen 10.20 sur 12
Qualité de l'air Non disponible.
Flu Activity Non disponible.
METAR KIOB 031035Z AUTO 25003KT 1 1/2SM BR VV007 18/18 A3006 RMK AO2

10-Day Weather Forecast

×

Almanac

Astronomie

Sep. 03, 2015 Lever Coucher
Temps réel
Crépuscule civil
Crépuscule nautique
Crépuscule astronomique
Lune
Durée de lumière visible
Longueur du jour
Tomorrow will be .
, % of the Moon is Illuminated

Extrêmes aujourd'hui

State Highs State Lows

Community

WunderPhotos

Upload Photos

1,851,933 Photos téléchargées !

WunderBlogs® & News

Nearby

Qualité de l'air

  Qualité de l'air Indice de la qualité de l'air Polluant
Not available.

Épaisseur de neige

Station Depth Altitude

Activité sismique

Ville Distance Mag. Time & Date
Minimum magnitude displayed is 2.5.

Températures des eaux côtières

Lieu Température

Stations

Stations météo à proximité

Emplacement de la station Température Refroidissement éolien Point de rosée Humidité Vent Precip. Alt. Mise à jour Type